createdAt,value
2023-08-12T00:00:12.329Z,170340.19
2023-08-12T00:10:17.714Z,170330.84
2023-08-12T00:20:22.411Z,170320.19
2023-08-12T00:30:25.453Z,170325.50
2023-08-12T00:40:29.999Z,170304.16
2023-08-12T00:50:33.817Z,170316.16
2023-08-12T01:00:37.988Z,170301.50
2023-08-12T01:10:46.887Z,170294.75
2023-08-12T01:20:51.507Z,170298.81
2023-08-12T01:31:00.581Z,170281.47
2023-08-12T01:41:04.000Z,170292.09
2023-08-12T01:51:08.616Z,170252.06
2023-08-12T02:01:11.564Z,170258.75
2023-08-12T02:11:15.968Z,170234.72
2023-08-12T02:21:18.967Z,170216.09
2023-08-12T02:31:24.058Z,170229.44
2023-08-12T02:41:26.939Z,170182.69
2023-08-12T02:51:31.433Z,170169.41
2023-08-12T03:01:34.459Z,170152.06
2023-08-12T03:11:38.809Z,170116.03
2023-08-12T03:21:44.786Z,170117.38
2023-08-12T03:31:49.770Z,170116.03
2023-08-12T03:41:54.057Z,170019.94
2023-08-12T03:51:58.821Z,170021.31
2023-08-12T04:02:02.712Z,170031.94
2023-08-12T04:12:07.928Z,169993.28
2023-08-12T04:22:10.966Z,170040.00
2023-08-12T04:32:16.070Z,170026.66
2023-08-12T04:42:19.668Z,170007.97
2023-08-12T04:52:24.634Z,169981.28
2023-08-12T05:02:27.744Z,169950.63
2023-08-12T05:12:32.885Z,169911.97
2023-08-12T05:22:37.499Z,169913.31
2023-08-12T05:32:41.933Z,169926.66
2023-08-12T05:42:45.004Z,169910.66
2023-08-12T05:52:49.463Z,169928.00
2023-08-12T06:02:52.960Z,169919.94
2023-08-12T06:12:57.492Z,169938.63
2023-08-12T06:23:01.110Z,169965.31
2023-08-12T06:33:06.105Z,169990.63
2023-08-12T06:43:09.936Z,169999.97
2023-08-12T06:53:14.122Z,170049.28
2023-08-12T07:03:17.181Z,170045.28
2023-08-12T07:13:21.614Z,170109.34
2023-08-12T07:23:24.919Z,170096.03
2023-08-12T07:33:29.391Z,170100.06
2023-08-12T07:43:35.535Z,170144.00
2023-08-12T07:53:42.929Z,170218.72
2023-08-12T08:03:52.329Z,170300.16
2023-08-12T08:13:57.798Z,170357.53
2023-08-12T08:24:05.803Z,170361.53
2023-08-12T08:34:17.509Z,170461.63
2023-08-12T08:44:24.934Z,170437.59
2023-08-12T08:54:32.395Z,170424.22
2023-08-12T09:04:42.528Z,170364.19
2023-08-12T09:14:50.120Z,170333.50
2023-08-12T09:24:59.745Z,170352.19
2023-08-12T09:35:06.770Z,170316.16
2023-08-12T09:45:13.577Z,170364.19
2023-08-12T09:55:25.858Z,170548.44
2023-08-12T10:05:33.569Z,170575.09
2023-08-12T10:15:39.354Z,170607.16
2023-08-12T10:25:51.671Z,170664.59
2023-08-12T10:35:59.087Z,170739.38
2023-08-12T10:46:02.892Z,170893.03
2023-08-12T10:56:13.946Z,170848.91
2023-08-12T11:06:21.738Z,170893.03
2023-08-12T11:16:39.151Z,170967.81
2023-08-12T11:26:43.568Z,170931.78
2023-08-12T11:36:48.047Z,171009.25
2023-08-12T11:46:54.433Z,171044.00
2023-08-12T11:57:03.156Z,171097.47
2023-08-12T12:07:19.728Z,171150.94
2023-08-12T12:17:25.107Z,171217.78
2023-08-12T12:27:28.597Z,171232.44
2023-08-12T12:37:33.689Z,171326.06
2023-08-12T12:47:43.442Z,171450.47
2023-08-12T12:57:54.100Z,171498.63
2023-08-12T13:08:00.405Z,171425.03
2023-08-12T13:18:11.034Z,171624.34
2023-08-12T13:28:17.447Z,171611.00
2023-08-12T13:38:27.996Z,171533.34
2023-08-12T13:48:32.480Z,171441.09
2023-08-12T13:58:42.587Z,171439.75
2023-08-12T14:08:48.779Z,171380.91
2023-08-12T14:18:59.354Z,171664.47
2023-08-12T14:29:06.024Z,171659.13
2023-08-12T14:39:16.454Z,171787.63
2023-08-12T14:49:22.446Z,171750.09
2023-08-12T14:59:31.908Z,171685.88
2023-08-12T15:09:38.705Z,171477.19
2023-08-12T15:19:52.527Z,171388.91
2023-08-12T15:29:55.909Z,171367.53
2023-08-12T15:40:08.582Z,171378.19
2023-08-12T15:50:11.725Z,171290.00
2023-08-12T16:00:24.025Z,171268.59
2023-08-12T16:10:28.770Z,171295.34
2023-08-12T16:20:43.183Z,171240.47
2023-08-12T16:30:46.168Z,171142.91
2023-08-12T16:40:55.011Z,171113.53
2023-08-12T16:51:01.656Z,171112.19
2023-08-12T17:01:13.095Z,171207.06
2023-08-12T17:11:19.303Z,171076.09
2023-08-12T17:21:26.940Z,171009.25
2023-08-12T17:31:34.013Z,170967.81
2023-08-12T17:41:43.357Z,170856.91
2023-08-12T17:51:47.500Z,170816.81
2023-08-12T18:01:53.012Z,170748.72
2023-08-12T18:11:56.755Z,170667.22
2023-08-12T18:22:01.841Z,170552.44
2023-08-12T18:32:05.705Z,170454.94
2023-08-12T18:42:11.806Z,170365.53
2023-08-12T18:52:16.117Z,170316.16
2023-08-12T19:02:21.227Z,170269.41
2023-08-12T19:12:24.619Z,170186.75
2023-08-12T19:22:29.000Z,170097.34
2023-08-12T19:32:34.619Z,170002.63
2023-08-12T19:42:39.067Z,169911.97
2023-08-12T19:52:42.490Z,169837.28
2023-08-12T20:02:50.693Z,169765.28
2023-08-12T20:12:55.478Z,169712.00
2023-08-12T20:23:06.238Z,169641.31
2023-08-12T20:33:10.740Z,169594.69
2023-08-12T20:43:15.003Z,169570.75
2023-08-12T20:53:18.100Z,169529.41
2023-08-12T21:03:22.693Z,169488.16
2023-08-12T21:13:26.055Z,169450.81
2023-08-12T21:23:30.516Z,169405.56
2023-08-12T21:33:33.528Z,169381.50
2023-08-12T21:43:37.994Z,169381.50
2023-08-12T21:53:41.205Z,169350.94
2023-08-12T22:03:45.556Z,169341.59
2023-08-12T22:13:48.660Z,169321.59
2023-08-12T22:23:53.504Z,169330.94
2023-08-12T22:33:56.522Z,169321.59
2023-08-12T22:44:01.022Z,169310.97
2023-08-12T22:54:05.477Z,169303.00
2023-08-12T23:04:10.116Z,169300.31
2023-08-12T23:14:13.199Z,169296.31
2023-08-12T23:24:17.621Z,169292.31
2023-08-12T23:34:20.653Z,169240.41
2023-08-12T23:44:25.060Z,169224.44
2023-08-12T23:54:28.845Z,169181.84
